sensor_id;sensor_type;location;lat;lon;timestamp;temperature;humidity
47162;DHT22;32921;53.256;8.198;2024-03-29T11:31:07;9.40;99.90
47162;DHT22;32921;53.256;8.198;2024-03-29T11:36:15;17.80;52.70
47162;DHT22;32921;53.256;8.198;2024-03-29T11:38:42;17.60;54.00
47162;DHT22;32921;53.256;8.198;2024-03-29T11:41:16;17.60;54.60
47162;DHT22;32921;53.256;8.198;2024-03-29T11:43:42;18.10;52.60
47162;DHT22;32921;53.256;8.198;2024-03-29T11:46:13;18.80;50.90
47162;DHT22;32921;53.256;8.198;2024-03-29T11:48:40;18.60;48.80
47162;DHT22;32921;53.256;8.198;2024-03-29T11:51:07;18.50;48.10
47162;DHT22;32921;53.256;8.198;2024-03-29T11:53:35;18.50;47.00
47162;DHT22;32921;53.256;8.198;2024-03-29T11:56:01;17.60;51.40
47162;DHT22;32921;53.256;8.198;2024-03-29T11:58:30;17.70;50.20
47162;DHT22;32921;53.256;8.198;2024-03-29T12:00:57;17.30;53.90
47162;DHT22;32921;53.256;8.198;2024-03-29T12:03:26;17.00;54.10
47162;DHT22;32921;53.256;8.198;2024-03-29T12:05:53;16.60;54.90
47162;DHT22;32921;53.256;8.198;2024-03-29T12:08:23;16.10;58.00
47162;DHT22;32921;53.256;8.198;2024-03-29T12:10:49;16.20;60.10
47162;DHT22;32921;53.256;8.198;2024-03-29T12:13:16;16.40;57.70
47162;DHT22;32921;53.256;8.198;2024-03-29T12:15:42;16.20;58.20
47162;DHT22;32921;53.256;8.198;2024-03-29T12:18:08;16.10;61.40
47162;DHT22;32921;53.256;8.198;2024-03-29T12:20:35;16.20;59.40
47162;DHT22;32921;53.256;8.198;2024-03-29T12:23:03;16.60;57.10
47162;DHT22;32921;53.256;8.198;2024-03-29T12:25:30;16.80;57.60
47162;DHT22;32921;53.256;8.198;2024-03-29T12:27:57;16.70;58.50
47162;DHT22;32921;53.256;8.198;2024-03-29T12:30:22;16.40;57.70
47162;DHT22;32921;53.256;8.198;2024-03-29T12:32:48;16.10;59.10
47162;DHT22;32921;53.256;8.198;2024-03-29T12:35:15;15.60;61.80
47162;DHT22;32921;53.256;8.198;2024-03-29T12:37:50;15.70;66.40
47162;DHT22;32921;53.256;8.198;2024-03-29T12:40:17;16.10;66.10
47162;DHT22;32921;53.256;8.198;2024-03-29T12:42:52;17.00;63.20
47162;DHT22;32921;53.256;8.198;2024-03-29T12:45:18;18.30;58.60
47162;DHT22;32921;53.256;8.198;2024-03-29T12:47:45;19.00;50.30
47162;DHT22;32921;53.256;8.198;2024-03-29T12:50:26;18.90;47.70
47162;DHT22;32921;53.256;8.198;2024-03-29T12:53:13;17.90;48.80
47162;DHT22;32921;53.256;8.198;2024-03-29T12:55:43;16.80;52.20
47162;DHT22;32921;53.256;8.198;2024-03-29T12:58:14;16.30;56.20
47162;DHT22;32921;53.256;8.198;2024-03-29T13:00:41;16.20;58.30
47162;DHT22;32921;53.256;8.198;2024-03-29T13:03:08;16.20;59.80
47162;DHT22;32921;53.256;8.198;2024-03-29T13:05:37;15.90;59.80
47162;DHT22;32921;53.256;8.198;2024-03-29T13:08:07;15.50;61.80
47162;DHT22;32921;53.256;8.198;2024-03-29T13:10:36;15.30;62.50
47162;DHT22;32921;53.256;8.198;2024-03-29T13:13:02;15.40;64.00
47162;DHT22;32921;53.256;8.198;2024-03-29T13:15:28;15.70;64.10
47162;DHT22;32921;53.256;8.198;2024-03-29T13:17:55;16.00;64.20
47162;DHT22;32921;53.256;8.198;2024-03-29T13:20:22;16.30;62.70
47162;DHT22;32921;53.256;8.198;2024-03-29T13:22:49;15.90;60.80
47162;DHT22;32921;53.256;8.198;2024-03-29T13:25:16;15.60;63.10
47162;DHT22;32921;53.256;8.198;2024-03-29T13:27:43;15.30;63.60
47162;DHT22;32921;53.256;8.198;2024-03-29T13:30:11;15.00;66.10
47162;DHT22;32921;53.256;8.198;2024-03-29T13:32:43;14.50;68.80
47162;DHT22;32921;53.256;8.198;2024-03-29T13:35:12;14.40;70.00
47162;DHT22;32921;53.256;8.198;2024-03-29T13:37:45;14.40;75.40
47162;DHT22;32921;53.256;8.198;2024-03-29T13:40:14;14.20;75.00
47162;DHT22;32921;53.256;8.198;2024-03-29T13:42:40;14.10;79.70
47162;DHT22;32921;53.256;8.198;2024-03-29T13:45:07;14.40;82.10
47162;DHT22;32921;53.256;8.198;2024-03-29T13:47:35;14.80;81.40
47162;DHT22;32921;53.256;8.198;2024-03-29T13:50:00;14.70;78.90
47162;DHT22;32921;53.256;8.198;2024-03-29T13:52:26;14.70;80.40
47162;DHT22;32921;53.256;8.198;2024-03-29T13:54:55;14.70;80.50
47162;DHT22;32921;53.256;8.198;2024-03-29T13:57:21;14.70;80.80
47162;DHT22;32921;53.256;8.198;2024-03-29T13:59:46;14.80;78.80
47162;DHT22;32921;53.256;8.198;2024-03-29T14:02:14;14.70;79.10
47162;DHT22;32921;53.256;8.198;2024-03-29T14:04:43;14.90;81.10
47162;DHT22;32921;53.256;8.198;2024-03-29T14:07:10;15.00;82.50
47162;DHT22;32921;53.256;8.198;2024-03-29T14:09:40;15.00;81.30
47162;DHT22;32921;53.256;8.198;2024-03-29T14:12:06;14.90;85.00
47162;DHT22;32921;53.256;8.198;2024-03-29T14:14:33;14.80;83.50
47162;DHT22;32921;53.256;8.198;2024-03-29T14:16:59;15.10;85.10
47162;DHT22;32921;53.256;8.198;2024-03-29T14:19:30;15.30;80.50
47162;DHT22;32921;53.256;8.198;2024-03-29T14:21:57;15.30;80.10
47162;DHT22;32921;53.256;8.198;2024-03-29T14:24:23;15.60;79.80
47162;DHT22;32921;53.256;8.198;2024-03-29T14:26:53;16.00;77.20
47162;DHT22;32921;53.256;8.198;2024-03-29T14:29:19;16.10;73.40
47162;DHT22;32921;53.256;8.198;2024-03-29T14:31:47;15.60;73.30
47162;DHT22;32921;53.256;8.198;2024-03-29T14:34:13;15.60;76.10
47162;DHT22;32921;53.256;8.198;2024-03-29T14:36:38;16.20;73.80
47162;DHT22;32921;53.256;8.198;2024-03-29T14:39:04;16.50;69.80
47162;DHT22;32921;53.256;8.198;2024-03-29T14:41:30;16.40;67.50
47162;DHT22;32921;53.256;8.198;2024-03-29T14:43:56;16.40;66.10
47162;DHT22;32921;53.256;8.198;2024-03-29T14:46:23;16.30;65.30
47162;DHT22;32921;53.256;8.198;2024-03-29T14:48:48;16.70;64.60
47162;DHT22;32921;53.256;8.198;2024-03-29T14:51:15;17.40;62.20
47162;DHT22;32921;53.256;8.198;2024-03-29T14:53:41;18.70;54.10
47162;DHT22;32921;53.256;8.198;2024-03-29T14:56:13;19.40;48.60
47162;DHT22;32921;53.256;8.198;2024-03-29T14:58:39;19.70;44.80
47162;DHT22;32921;53.256;8.198;2024-03-29T15:01:05;19.60;43.20
47162;DHT22;32921;53.256;8.198;2024-03-29T15:03:31;18.00;46.20
47162;DHT22;32921;53.256;8.198;2024-03-29T15:05:56;16.50;52.30
47162;DHT22;32921;53.256;8.198;2024-03-29T15:08:22;15.90;56.50
47162;DHT22;32921;53.256;8.198;2024-03-29T15:11:05;15.60;59.40
47162;DHT22;32921;53.256;8.198;2024-03-29T15:13:32;16.20;57.60
47162;DHT22;32921;53.256;8.198;2024-03-29T15:15:59;17.30;52.00
47162;DHT22;32921;53.256;8.198;2024-03-29T15:18:25;17.00;51.70
47162;DHT22;32921;53.256;8.198;2024-03-29T15:21:09;17.70;49.80
47162;DHT22;32921;53.256;8.198;2024-03-29T15:23:35;17.50;48.70
47162;DHT22;32921;53.256;8.198;2024-03-29T15:26:02;15.70;53.80
47162;DHT22;32921;53.256;8.198;2024-03-29T15:28:29;15.40;58.30
47162;DHT22;32921;53.256;8.198;2024-03-29T15:31:20;15.10;62.50
47162;DHT22;32921;53.256;8.198;2024-03-29T15:33:50;15.50;63.10
47162;DHT22;32921;53.256;8.198;2024-03-29T15:36:16;15.90;63.90
47162;DHT22;32921;53.256;8.198;2024-03-29T15:38:42;16.40;59.70
47162;DHT22;32921;53.256;8.198;2024-03-29T15:41:08;16.40;54.60
47162;DHT22;32921;53.256;8.198;2024-03-29T15:43:35;16.20;57.60
47162;DHT22;32921;53.256;8.198;2024-03-29T15:46:07;16.60;57.00
47162;DHT22;32921;53.256;8.198;2024-03-29T15:48:33;17.40;53.60
47162;DHT22;32921;53.256;8.198;2024-03-29T15:50:59;17.80;49.90
47162;DHT22;32921;53.256;8.198;2024-03-29T15:53:25;18.10;49.20
47162;DHT22;32921;53.256;8.198;2024-03-29T15:55:51;17.90;48.30
47162;DHT22;32921;53.256;8.198;2024-03-29T15:58:17;17.00;50.40
47162;DHT22;32921;53.256;8.198;2024-03-29T16:00:43;17.10;52.80
47162;DHT22;32921;53.256;8.198;2024-03-29T16:03:12;16.80;52.30
47162;DHT22;32921;53.256;8.198;2024-03-29T16:05:43;16.80;52.80
47162;DHT22;32921;53.256;8.198;2024-03-29T16:08:10;17.50;50.00
47162;DHT22;32921;53.256;8.198;2024-03-29T16:10:54;18.60;48.00
47162;DHT22;32921;53.256;8.198;2024-03-29T16:13:25;19.00;44.70
47162;DHT22;32921;53.256;8.198;2024-03-29T16:15:55;19.00;42.90
47162;DHT22;32921;53.256;8.198;2024-03-29T16:18:24;18.60;43.40
47162;DHT22;32921;53.256;8.198;2024-03-29T16:20:51;17.00;47.30
47162;DHT22;32921;53.256;8.198;2024-03-29T16:23:17;16.00;52.20
47162;DHT22;32921;53.256;8.198;2024-03-29T16:25:43;15.40;58.00
47162;DHT22;32921;53.256;8.198;2024-03-29T16:28:12;15.00;58.60
47162;DHT22;32921;53.256;8.198;2024-03-29T16:30:44;14.60;60.50
47162;DHT22;32921;53.256;8.198;2024-03-29T16:33:10;14.30;62.70
47162;DHT22;32921;53.256;8.198;2024-03-29T16:35:36;14.00;69.50
47162;DHT22;32921;53.256;8.198;2024-03-29T16:38:02;13.80;73.20
47162;DHT22;32921;53.256;8.198;2024-03-29T16:40:28;13.70;75.00
47162;DHT22;32921;53.256;8.198;2024-03-29T16:42:53;13.50;81.30
47162;DHT22;32921;53.256;8.198;2024-03-29T16:45:19;13.40;83.60
47162;DHT22;32921;53.256;8.198;2024-03-29T16:47:45;13.20;83.30
47162;DHT22;32921;53.256;8.198;2024-03-29T16:50:11;13.20;86.60
47162;DHT22;32921;53.256;8.198;2024-03-29T16:52:36;13.10;90.00
47162;DHT22;32921;53.256;8.198;2024-03-29T16:55:02;13.00;92.20
47162;DHT22;32921;53.256;8.198;2024-03-29T16:57:29;12.90;93.40
47162;DHT22;32921;53.256;8.198;2024-03-29T16:59:55;12.70;93.00
47162;DHT22;32921;53.256;8.198;2024-03-29T17:02:20;12.60;96.80
